createdAt,value
2019-01-20T00:00:10.784Z,0
2019-01-20T00:01:10.797Z,0
2019-01-20T00:02:10.855Z,0
2019-01-20T00:03:10.793Z,0
2019-01-20T00:04:10.804Z,0
2019-01-20T00:05:10.794Z,0
2019-01-20T00:06:10.754Z,0
2019-01-20T00:07:10.852Z,0
2019-01-20T00:08:10.778Z,0
2019-01-20T00:09:10.778Z,0
2019-01-20T00:10:10.840Z,0
2019-01-20T00:11:17.786Z,0
2019-01-20T00:12:10.741Z,0
2019-01-20T00:13:10.741Z,0
2019-01-20T00:14:10.800Z,0
2019-01-20T00:15:10.860Z,0
2019-01-20T00:16:10.758Z,0
2019-01-20T00:17:10.764Z,0
2019-01-20T00:18:10.784Z,0
2019-01-20T00:19:10.766Z,0
2019-01-20T00:20:10.831Z,0
2019-01-20T00:21:10.767Z,0
2019-01-20T00:22:10.853Z,0
2019-01-20T00:23:10.719Z,0
2019-01-20T00:24:10.757Z,0
2019-01-20T00:25:11.237Z,1.8
2019-01-20T00:26:10.841Z,1.8
2019-01-20T00:27:10.797Z,0
2019-01-20T00:28:10.789Z,1.8
2019-01-20T00:29:10.827Z,1.8
2019-01-20T00:30:10.810Z,1.8
2019-01-20T00:31:10.773Z,1.8
2019-01-20T00:32:10.827Z,1.8
2019-01-20T00:33:10.818Z,0
2019-01-20T00:34:11.062Z,0
2019-01-20T00:35:10.851Z,0
2019-01-20T00:36:10.728Z,1.8
2019-01-20T00:37:10.778Z,0
2019-01-20T00:38:10.756Z,3.9
2019-01-20T00:39:10.732Z,6.6
2019-01-20T00:40:10.808Z,3.9
2019-01-20T00:41:10.760Z,3.9
2019-01-20T00:42:10.779Z,3.9
2019-01-20T00:43:10.837Z,3.9
2019-01-20T00:44:10.843Z,3.9
2019-01-20T00:45:10.701Z,3.9
2019-01-20T00:46:10.781Z,3.9
2019-01-20T00:47:10.758Z,1.8
2019-01-20T00:48:10.849Z,1.8
2019-01-20T00:49:10.761Z,1.8
2019-01-20T00:50:10.708Z,1.8
2019-01-20T00:51:10.752Z,1.8
2019-01-20T00:52:10.801Z,1.8
2019-01-20T00:53:10.807Z,1.8
2019-01-20T00:54:10.745Z,1.8
2019-01-20T00:55:10.738Z,0
2019-01-20T00:56:10.765Z,0
2019-01-20T00:57:10.769Z,0
2019-01-20T00:58:10.750Z,0
2019-01-20T00:59:10.735Z,0
2019-01-20T01:00:10.819Z,0
2019-01-20T01:01:10.803Z,0
2019-01-20T01:02:10.733Z,0
2019-01-20T01:03:10.763Z,0
2019-01-20T01:04:10.775Z,0
2019-01-20T01:05:10.740Z,0
2019-01-20T01:06:10.763Z,0
2019-01-20T01:07:10.690Z,0
2019-01-20T01:08:10.742Z,0
2019-01-20T01:09:10.799Z,0
2019-01-20T01:10:10.795Z,0
2019-01-20T01:11:10.738Z,0
2019-01-20T01:12:10.692Z,0
2019-01-20T01:13:10.803Z,0
2019-01-20T01:14:10.833Z,0
2019-01-20T01:15:10.821Z,0
2019-01-20T01:16:10.747Z,0
2019-01-20T01:17:10.699Z,0
2019-01-20T01:18:10.682Z,0
2019-01-20T01:19:10.820Z,0
2019-01-20T01:20:10.764Z,0
2019-01-20T01:21:10.740Z,0
2019-01-20T01:22:10.782Z,0
2019-01-20T01:23:10.745Z,0
2019-01-20T01:24:10.823Z,0
2019-01-20T01:25:10.748Z,0
2019-01-20T01:26:10.776Z,0
2019-01-20T01:27:10.725Z,0
2019-01-20T01:28:10.681Z,0
2019-01-20T01:29:10.787Z,0
2019-01-20T01:30:10.726Z,0
2019-01-20T01:31:10.746Z,0
2019-01-20T01:32:10.790Z,0
2019-01-20T01:33:10.718Z,0
2019-01-20T01:34:10.773Z,0
2019-01-20T01:35:10.761Z,0
2019-01-20T01:36:10.768Z,0
2019-01-20T01:37:10.726Z,0
2019-01-20T01:38:10.796Z,0
2019-01-20T01:39:10.672Z,0
2019-01-20T01:40:10.723Z,0
2019-01-20T01:41:10.811Z,0
2019-01-20T01:42:10.742Z,0
2019-01-20T01:43:10.749Z,0
2019-01-20T01:44:10.762Z,0
2019-01-20T01:45:10.694Z,0
2019-01-20T01:46:10.784Z,0
2019-01-20T01:47:10.739Z,0
2019-01-20T01:48:10.746Z,0
2019-01-20T01:49:10.805Z,0
2019-01-20T01:50:10.752Z,0
2019-01-20T01:51:10.768Z,0
2019-01-20T01:52:10.719Z,0
2019-01-20T01:53:10.756Z,0
2019-01-20T01:54:10.763Z,0
2019-01-20T01:55:10.691Z,0
2019-01-20T01:56:10.769Z,0
2019-01-20T01:57:10.721Z,0
2019-01-20T01:58:10.808Z,0
2019-01-20T01:59:10.847Z,0
2019-01-20T02:00:10.710Z,0
2019-01-20T02:01:10.698Z,0
2019-01-20T02:02:10.751Z,0
2019-01-20T02:03:10.774Z,0
2019-01-20T02:04:10.706Z,0
2019-01-20T02:05:10.842Z,0
2019-01-20T02:06:10.757Z,0
2019-01-20T02:07:10.649Z,0
2019-01-20T02:08:10.726Z,0
2019-01-20T02:09:10.736Z,0
2019-01-20T02:10:10.773Z,0
2019-01-20T02:11:10.734Z,0
2019-01-20T02:12:10.760Z,0
2019-01-20T02:13:10.715Z,0
2019-01-20T02:14:10.715Z,0
2019-01-20T02:15:10.789Z,0
2019-01-20T02:16:10.749Z,0
2019-01-20T02:17:10.685Z,0
2019-01-20T02:18:10.680Z,0
2019-01-20T02:19:10.789Z,0
2019-01-20T02:20:10.708Z,0
2019-01-20T02:21:10.698Z,0
2019-01-20T02:22:10.748Z,0
2019-01-20T02:23:10.673Z,0
2019-01-20T02:24:10.812Z,0
2019-01-20T02:25:10.764Z,0
2019-01-20T02:26:10.790Z,0
2019-01-20T02:27:10.777Z,0
2019-01-20T02:28:10.677Z,0
2019-01-20T02:29:10.732Z,0
2019-01-20T02:30:10.757Z,0
2019-01-20T02:31:10.734Z,0
2019-01-20T02:32:10.754Z,0
2019-01-20T02:33:10.701Z,0
2019-01-20T02:34:10.716Z,0
2019-01-20T02:35:10.803Z,0
2019-01-20T02:36:10.726Z,0
2019-01-20T02:37:10.793Z,0
2019-01-20T02:38:10.696Z,0
2019-01-20T02:39:10.672Z,0
2019-01-20T02:40:10.710Z,1.8
2019-01-20T02:41:10.763Z,1.8
2019-01-20T02:42:10.862Z,1.8
2019-01-20T02:43:10.741Z,1.8
2019-01-20T02:44:10.650Z,1.8
2019-01-20T02:45:10.665Z,3.9
2019-01-20T02:46:10.683Z,1.8
2019-01-20T02:47:10.788Z,0
2019-01-20T02:48:10.739Z,0
2019-01-20T02:49:10.702Z,0
2019-01-20T02:50:10.655Z,0
2019-01-20T02:51:10.769Z,0
2019-01-20T02:52:10.738Z,0
2019-01-20T02:53:10.787Z,0
2019-01-20T02:54:10.728Z,0
2019-01-20T02:55:10.654Z,0
2019-01-20T02:56:10.642Z,0
2019-01-20T02:57:10.751Z,0
2019-01-20T02:58:10.806Z,0
2019-01-20T02:59:10.718Z,0
2019-01-20T03:00:10.737Z,0
2019-01-20T03:01:10.639Z,0
2019-01-20T03:02:10.690Z,0
2019-01-20T03:03:10.718Z,0
2019-01-20T03:04:10.796Z,0
2019-01-20T03:05:10.687Z,3.9
2019-01-20T03:06:10.676Z,3.9
2019-01-20T03:07:10.683Z,3.9
2019-01-20T03:08:10.731Z,3.9
2019-01-20T03:09:10.687Z,6.6
2019-01-20T03:10:10.722Z,3.9
2019-01-20T03:11:10.703Z,3.9
2019-01-20T03:12:10.743Z,3.9
2019-01-20T03:13:10.682Z,3.9
2019-01-20T03:14:10.787Z,3.9
2019-01-20T03:15:10.690Z,3.9
2019-01-20T03:16:10.738Z,3.9
2019-01-20T03:17:10.663Z,6.6
2019-01-20T03:18:10.700Z,6.6
2019-01-20T03:19:10.780Z,9.5
2019-01-20T03:20:10.703Z,6.6
2019-01-20T03:21:10.693Z,6.6
2019-01-20T03:22:10.714Z,6.6
2019-01-20T03:23:10.690Z,6.6
2019-01-20T03:24:10.744Z,6.6
2019-01-20T03:25:10.686Z,6.6
2019-01-20T03:26:10.687Z,6.6
2019-01-20T03:27:10.707Z,3.9
2019-01-20T03:28:10.717Z,6.6
2019-01-20T03:29:10.684Z,3.9
2019-01-20T03:30:10.908Z,1.8
2019-01-20T03:31:10.753Z,3.9
2019-01-20T03:32:10.737Z,3.9
2019-01-20T03:33:10.749Z,1.8
2019-01-20T03:34:10.700Z,3.9
2019-01-20T03:35:10.652Z,1.8
2019-01-20T03:36:11.689Z,1.8
2019-01-20T03:37:10.740Z,1.8
2019-01-20T03:38:10.751Z,1.8
2019-01-20T03:39:10.649Z,1.8
2019-01-20T03:40:10.744Z,3.9
2019-01-20T03:41:10.726Z,3.9
2019-01-20T03:42:14.638Z,1.8
2019-01-20T03:43:10.709Z,1.8
2019-01-20T03:44:10.666Z,1.8
2019-01-20T03:45:10.743Z,1.8
2019-01-20T03:46:10.691Z,1.8
2019-01-20T03:47:10.760Z,1.8
2019-01-20T03:48:10.704Z,0
2019-01-20T03:49:10.692Z,1.8
2019-01-20T03:50:10.716Z,1.8
2019-01-20T03:51:10.755Z,0
2019-01-20T03:52:10.658Z,0
2019-01-20T03:53:10.708Z,0
2019-01-20T03:54:10.699Z,0
2019-01-20T03:55:10.634Z,0
2019-01-20T03:56:10.785Z,0
2019-01-20T03:57:10.670Z,0
2019-01-20T03:58:10.741Z,0
2019-01-20T03:59:10.680Z,0
2019-01-20T04:00:10.665Z,0
2019-01-20T04:01:10.690Z,0
2019-01-20T04:02:10.697Z,0
2019-01-20T04:03:10.761Z,0
2019-01-20T04:04:10.709Z,0
2019-01-20T04:05:10.655Z,0
2019-01-20T04:06:10.653Z,0
2019-01-20T04:07:10.670Z,0
2019-01-20T04:08:10.748Z,0
2019-01-20T04:09:10.747Z,0
2019-01-20T04:10:10.778Z,0
2019-01-20T04:11:10.665Z,0
2019-01-20T04:12:10.626Z,0
2019-01-20T04:13:10.675Z,0
2019-01-20T04:14:10.606Z,0
2019-01-20T04:15:10.720Z,0
2019-01-20T04:16:10.660Z,0
2019-01-20T04:17:10.606Z,0
2019-01-20T04:18:10.659Z,0
2019-01-20T04:19:10.817Z,0
2019-01-20T04:20:10.689Z,0
2019-01-20T04:21:10.733Z,0
2019-01-20T04:22:10.614Z,0
2019-01-20T04:23:10.627Z,0
2019-01-20T04:24:10.678Z,0
2019-01-20T04:25:10.717Z,0
2019-01-20T04:26:10.681Z,0
2019-01-20T04:27:10.713Z,0
2019-01-20T04:28:10.630Z,0
2019-01-20T04:29:10.729Z,0
2019-01-20T04:30:10.666Z,0
2019-01-20T04:31:10.735Z,0
2019-01-20T04:32:10.684Z,0
2019-01-20T04:33:10.649Z,0
2019-01-20T04:34:10.652Z,0
2019-01-20T04:35:10.668Z,0
2019-01-20T04:36:10.714Z,0
2019-01-20T04:37:10.647Z,0
2019-01-20T04:38:10.671Z,0
2019-01-20T04:39:10.617Z,0
2019-01-20T04:40:10.700Z,0
2019-01-20T04:41:10.696Z,0
2019-01-20T04:42:10.653Z,0
2019-01-20T04:43:10.644Z,0
2019-01-20T04:44:10.659Z,0
2019-01-20T04:45:10.726Z,0
2019-01-20T04:46:10.653Z,0
2019-01-20T04:47:10.710Z,0
2019-01-20T04:48:10.641Z,0
2019-01-20T04:49:10.643Z,0
2019-01-20T04:50:10.604Z,0
2019-01-20T04:51:10.655Z,0
2019-01-20T04:52:10.666Z,0
2019-01-20T04:53:11.071Z,0
2019-01-20T04:54:10.725Z,1.8
2019-01-20T04:55:10.649Z,1.8
2019-01-20T04:56:10.601Z,0
2019-01-20T04:57:10.702Z,0
2019-01-20T04:58:10.707Z,0
2019-01-20T04:59:10.667Z,0
2019-01-20T05:00:10.672Z,0
2019-01-20T05:01:10.656Z,0
2019-01-20T05:02:10.665Z,0
2019-01-20T05:03:10.726Z,0
2019-01-20T05:04:10.717Z,0
2019-01-20T05:05:10.647Z,0
2019-01-20T05:06:10.602Z,0
2019-01-20T05:07:10.690Z,0
2019-01-20T05:08:10.620Z,0
2019-01-20T05:09:10.699Z,0
2019-01-20T05:10:10.632Z,0
2019-01-20T05:11:10.725Z,0
2019-01-20T05:12:10.616Z,0
2019-01-20T05:13:10.634Z,0
2019-01-20T05:14:10.629Z,0
2019-01-20T05:15:10.720Z,0
2019-01-20T05:16:10.634Z,0
2019-01-20T05:17:10.660Z,0
2019-01-20T05:18:10.633Z,0
2019-01-20T05:19:10.656Z,0
2019-01-20T05:20:10.679Z,0
2019-01-20T05:21:10.635Z,0
2019-01-20T05:22:10.626Z,0
2019-01-20T05:23:10.766Z,0
2019-01-20T05:24:10.654Z,0
2019-01-20T05:25:10.708Z,0
2019-01-20T05:26:10.632Z,3.9
2019-01-20T05:27:10.637Z,3.9
2019-01-20T05:28:10.622Z,3.9
2019-01-20T05:29:10.628Z,6.6
2019-01-20T05:30:10.738Z,6.6
2019-01-20T05:31:10.631Z,6.6
2019-01-20T05:32:10.682Z,6.6
2019-01-20T05:33:10.745Z,3.9
2019-01-20T05:34:10.586Z,3.9
2019-01-20T05:35:10.631Z,3.9
2019-01-20T05:36:10.659Z,3.9
2019-01-20T05:37:10.703Z,1.8
2019-01-20T05:38:10.622Z,3.9
2019-01-20T05:39:10.557Z,3.9
2019-01-20T05:40:10.638Z,0
2019-01-20T05:41:10.654Z,3.9
2019-01-20T05:42:10.726Z,3.9
2019-01-20T05:43:10.643Z,1.8
2019-01-20T05:44:10.579Z,0
2019-01-20T05:45:10.622Z,0
2019-01-20T05:46:10.617Z,0
2019-01-20T05:47:10.701Z,0
2019-01-20T05:48:10.625Z,0
2019-01-20T05:49:10.591Z,0
2019-01-20T05:50:10.568Z,0
2019-01-20T05:51:10.633Z,0
2019-01-20T05:52:10.693Z,0
2019-01-20T05:53:10.624Z,0
2019-01-20T05:54:10.603Z,0
2019-01-20T05:55:10.711Z,0
2019-01-20T05:56:10.603Z,0
2019-01-20T05:57:10.657Z,0
2019-01-20T05:58:10.654Z,0
2019-01-20T05:59:10.666Z,0
2019-01-20T06:00:10.611Z,0
2019-01-20T06:01:10.568Z,0
2019-01-20T06:02:10.602Z,0
2019-01-20T06:03:10.617Z,0
2019-01-20T06:04:10.747Z,0
2019-01-20T06:05:10.620Z,3.9
2019-01-20T06:06:10.596Z,1.8
2019-01-20T06:07:10.705Z,6.6
2019-01-20T06:08:10.634Z,3.9
2019-01-20T06:09:10.617Z,3.9
2019-01-20T06:10:10.571Z,3.9
2019-01-20T06:11:10.719Z,3.9
2019-01-20T06:12:10.565Z,3.9
2019-01-20T06:13:10.631Z,3.9
2019-01-20T06:14:10.634Z,3.9
2019-01-20T06:15:10.625Z,1.8
2019-01-20T06:16:10.687Z,3.9
2019-01-20T06:17:10.587Z,3.9
2019-01-20T06:18:10.637Z,3.9
2019-01-20T06:19:10.593Z,3.9
2019-01-20T06:20:10.690Z,1.8
2019-01-20T06:21:10.598Z,1.8
2019-01-20T06:22:10.553Z,3.9
2019-01-20T06:23:10.558Z,1.8
2019-01-20T06:24:10.695Z,1.8
2019-01-20T06:25:10.585Z,1.8
2019-01-20T06:26:10.611Z,0
2019-01-20T06:27:10.633Z,0
2019-01-20T06:28:10.617Z,0
2019-01-20T06:29:10.624Z,0
2019-01-20T06:30:10.633Z,0
2019-01-20T06:31:10.720Z,0
2019-01-20T06:32:10.653Z,0
2019-01-20T06:33:10.561Z,1.8
2019-01-20T06:34:10.602Z,1.8
2019-01-20T06:35:10.632Z,1.8
2019-01-20T06:36:10.600Z,0
2019-01-20T06:37:10.612Z,0
2019-01-20T06:38:10.615Z,0
2019-01-20T06:39:10.628Z,0
2019-01-20T06:40:10.577Z,0
2019-01-20T06:41:13.647Z,0
2019-01-20T06:42:13.391Z,0
2019-01-20T06:43:13.409Z,0
2019-01-20T06:44:11.646Z,0
2019-01-20T06:45:11.397Z,0
2019-01-20T06:46:12.334Z,0
2019-01-20T06:47:13.037Z,0
2019-01-20T06:48:13.857Z,0
2019-01-20T06:49:12.659Z,0
2019-01-20T06:50:13.089Z,0
2019-01-20T06:51:13.809Z,0
2019-01-20T06:52:15.420Z,0
2019-01-20T06:53:13.129Z,0
2019-01-20T06:54:11.214Z,0
2019-01-20T06:55:16.221Z,0
2019-01-20T06:56:12.028Z,0
2019-01-20T06:57:13.003Z,0
2019-01-20T06:58:12.801Z,0
2019-01-20T06:59:14.464Z,0
2019-01-20T07:00:11.800Z,0
2019-01-20T07:01:12.300Z,0
2019-01-20T07:02:12.560Z,0
2019-01-20T07:03:13.025Z,0
2019-01-20T07:04:12.721Z,0
2019-01-20T07:05:11.693Z,0
2019-01-20T07:06:13.061Z,0
2019-01-20T07:07:12.498Z,0
2019-01-20T07:08:13.187Z,0
2019-01-20T07:09:13.355Z,0
2019-01-20T07:10:12.828Z,0
2019-01-20T07:11:12.779Z,0
2019-01-20T07:12:12.351Z,0
2019-01-20T07:13:13.039Z,0
2019-01-20T07:14:15.001Z,0
2019-01-20T07:15:12.701Z,0
2019-01-20T07:16:13.175Z,0
2019-01-20T07:17:13.713Z,0
2019-01-20T07:18:12.085Z,0
2019-01-20T07:19:11.201Z,3.9
2019-01-20T07:20:12.645Z,1.8
2019-01-20T07:21:11.761Z,1.8
2019-01-20T07:22:16.830Z,1.8
2019-01-20T07:23:12.315Z,1.8
2019-01-20T07:24:13.126Z,3.9
2019-01-20T07:25:13.152Z,3.9
2019-01-20T07:26:13.457Z,0
2019-01-20T07:27:12.252Z,0
2019-01-20T07:28:12.085Z,1.8
2019-01-20T07:29:12.977Z,1.8
2019-01-20T07:30:13.099Z,3.9
2019-01-20T07:31:12.547Z,1.8
2019-01-20T07:32:12.783Z,3.9
2019-01-20T07:33:13.950Z,3.9
2019-01-20T07:34:13.055Z,1.8
2019-01-20T07:35:11.753Z,1.8
2019-01-20T07:36:11.895Z,3.9
2019-01-20T07:37:14.155Z,3.9
2019-01-20T07:38:13.610Z,1.8
2019-01-20T07:39:12.434Z,3.9
2019-01-20T07:40:12.085Z,3.9
2019-01-20T07:41:14.302Z,3.9
2019-01-20T07:42:13.012Z,3.9
2019-01-20T07:43:18.897Z,3.9
2019-01-20T07:44:12.834Z,1.8
2019-01-20T07:45:10.626Z,3.9
2019-01-20T07:46:10.619Z,3.9
2019-01-20T07:47:10.695Z,6.6
2019-01-20T07:48:10.570Z,3.9
2019-01-20T07:49:10.497Z,3.9
2019-01-20T07:50:10.538Z,1.8
2019-01-20T07:51:10.548Z,0
2019-01-20T07:52:10.603Z,0
2019-01-20T07:53:10.536Z,0
2019-01-20T07:54:10.563Z,0
2019-01-20T07:55:10.509Z,0
2019-01-20T07:56:10.631Z,0
2019-01-20T07:57:10.634Z,1.8
2019-01-20T07:58:10.548Z,3.9
2019-01-20T07:59:10.574Z,0
2019-01-20T08:00:13.984Z,1.8
2019-01-20T08:01:13.728Z,0
2019-01-20T08:02:13.103Z,0
2019-01-20T08:03:15.135Z,1.8
2019-01-20T08:04:12.932Z,0
2019-01-20T08:05:11.352Z,0
2019-01-20T08:06:13.720Z,0
2019-01-20T08:07:13.782Z,0
2019-01-20T08:08:12.219Z,0
2019-01-20T08:09:18.074Z,0
2019-01-20T08:10:11.225Z,0
2019-01-20T08:11:13.704Z,0
2019-01-20T08:12:12.399Z,3.9
2019-01-20T08:13:11.722Z,3.9
2019-01-20T08:14:10.705Z,1.8
2019-01-20T08:15:11.001Z,1.8
2019-01-20T08:16:10.839Z,3.9
2019-01-20T08:17:12.542Z,1.8
2019-01-20T08:18:13.927Z,0
2019-01-20T08:19:13.762Z,1.8
2019-01-20T08:20:13.579Z,0
2019-01-20T08:21:11.828Z,1.8
2019-01-20T08:22:12.083Z,3.9
2019-01-20T08:23:12.659Z,0
2019-01-20T08:24:12.969Z,0
2019-01-20T08:25:12.636Z,0
2019-01-20T08:26:12.155Z,0
2019-01-20T08:27:13.831Z,0
2019-01-20T08:28:12.612Z,0
2019-01-20T08:29:16.920Z,0
2019-01-20T08:30:15.889Z,1.8
2019-01-20T08:31:12.072Z,3.9
2019-01-20T08:32:13.975Z,0
2019-01-20T08:33:13.930Z,0
2019-01-20T08:34:12.036Z,3.9
2019-01-20T08:35:13.277Z,3.9
2019-01-20T08:36:12.505Z,3.9
2019-01-20T08:37:13.605Z,3.9
2019-01-20T08:38:12.718Z,1.8
2019-01-20T08:39:13.113Z,6.6
2019-01-20T08:40:13.989Z,3.9
2019-01-20T08:41:12.795Z,0
2019-01-20T08:42:12.752Z,0
2019-01-20T08:43:13.307Z,1.8
2019-01-20T08:44:12.719Z,3.9
2019-01-20T08:45:10.520Z,1.8
2019-01-20T08:46:10.563Z,3.9
2019-01-20T08:47:10.534Z,1.8
2019-01-20T08:48:10.629Z,1.8
2019-01-20T08:49:10.543Z,6.6
2019-01-20T08:50:10.494Z,1.8
2019-01-20T08:51:10.582Z,1.8
2019-01-20T08:52:10.685Z,3.9
2019-01-20T08:53:10.609Z,0
2019-01-20T08:54:10.541Z,6.6
2019-01-20T08:55:10.541Z,3.9
2019-01-20T08:56:10.557Z,0
2019-01-20T08:57:10.606Z,0
2019-01-20T08:58:10.564Z,1.8
2019-01-20T08:59:10.559Z,1.8
2019-01-20T09:00:10.592Z,1.8
2019-01-20T09:01:10.559Z,3.9
2019-01-20T09:02:10.557Z,3.9
2019-01-20T09:03:10.579Z,3.9
2019-01-20T09:04:10.524Z,0
2019-01-20T09:05:10.526Z,0
2019-01-20T09:06:10.551Z,3.9
2019-01-20T09:07:10.543Z,1.8
2019-01-20T09:08:10.508Z,0
2019-01-20T09:09:10.511Z,1.8
2019-01-20T09:10:10.508Z,1.8
2019-01-20T09:11:10.673Z,0
2019-01-20T09:12:10.556Z,0
2019-01-20T09:13:10.555Z,0
2019-01-20T09:14:10.796Z,0
2019-01-20T09:15:11.213Z,0
2019-01-20T09:16:10.579Z,1.8
2019-01-20T09:17:10.491Z,1.8
2019-01-20T09:18:11.713Z,0
2019-01-20T09:19:10.550Z,1.8
2019-01-20T09:20:10.643Z,0
2019-01-20T09:21:10.526Z,0
2019-01-20T09:22:10.550Z,0
2019-01-20T09:23:10.583Z,0
2019-01-20T09:24:10.528Z,1.8
2019-01-20T09:25:10.535Z,1.8
2019-01-20T09:26:10.687Z,0
2019-01-20T09:27:10.511Z,0
2019-01-20T09:28:10.476Z,0
2019-01-20T09:29:10.547Z,0
2019-01-20T09:30:10.495Z,0
2019-01-20T09:31:10.574Z,0
2019-01-20T09:32:10.513Z,1.8
2019-01-20T09:33:10.534Z,0
2019-01-20T09:34:10.585Z,0
2019-01-20T09:35:10.563Z,0
2019-01-20T09:36:10.533Z,0
2019-01-20T09:37:10.567Z,0
2019-01-20T09:38:13.825Z,0
2019-01-20T09:39:10.619Z,0
2019-01-20T09:40:10.539Z,0
2019-01-20T09:41:10.629Z,0
2019-01-20T09:42:10.553Z,0
2019-01-20T09:43:10.615Z,0
2019-01-20T09:44:11.383Z,3.9
2019-01-20T09:45:10.572Z,3.9
2019-01-20T09:46:10.638Z,0
2019-01-20T09:47:10.540Z,0
2019-01-20T09:48:10.528Z,0
2019-01-20T09:49:10.606Z,0
2019-01-20T09:50:10.503Z,0
2019-01-20T09:51:10.629Z,0
2019-01-20T09:52:10.560Z,0
2019-01-20T09:53:10.543Z,0
2019-01-20T09:54:10.617Z,0
2019-01-20T09:55:10.492Z,0
2019-01-20T09:56:10.565Z,1.8
2019-01-20T09:57:10.563Z,1.8
2019-01-20T09:58:10.562Z,1.8
2019-01-20T09:59:10.554Z,1.8
2019-01-20T10:00:10.518Z,1.8
2019-01-20T10:01:10.551Z,0
2019-01-20T10:02:10.535Z,1.8
2019-01-20T10:03:17.313Z,0
2019-01-20T10:04:10.553Z,0
2019-01-20T10:05:10.527Z,0
2019-01-20T10:06:10.532Z,0
2019-01-20T10:07:10.542Z,1.8
2019-01-20T10:08:12.549Z,1.8
2019-01-20T10:09:10.554Z,0
2019-01-20T10:10:10.603Z,0
2019-01-20T10:11:10.502Z,0
2019-01-20T10:12:10.474Z,0
2019-01-20T10:13:10.634Z,0
2019-01-20T10:14:10.598Z,0
2019-01-20T10:15:10.553Z,0
2019-01-20T10:16:10.527Z,0
2019-01-20T10:17:10.549Z,0
2019-01-20T10:18:10.513Z,0
2019-01-20T10:19:10.541Z,0
2019-01-20T10:20:10.548Z,0
2019-01-20T10:21:10.625Z,0
2019-01-20T10:22:10.520Z,0
2019-01-20T10:23:10.693Z,3.9
2019-01-20T10:24:10.691Z,3.9
2019-01-20T10:25:17.391Z,1.8
2019-01-20T10:26:10.752Z,3.9
2019-01-20T10:27:10.618Z,3.9
2019-01-20T10:28:11.152Z,3.9
2019-01-20T10:29:10.518Z,3.9
2019-01-20T10:30:10.487Z,3.9
2019-01-20T10:31:10.529Z,3.9
2019-01-20T10:32:10.592Z,3.9
2019-01-20T10:33:10.496Z,1.8
2019-01-20T10:34:10.503Z,1.8
2019-01-20T10:35:10.549Z,3.9
2019-01-20T10:36:10.516Z,3.9
2019-01-20T10:37:10.612Z,0
2019-01-20T10:38:10.548Z,0
2019-01-20T10:39:10.549Z,0
2019-01-20T10:40:10.571Z,0
2019-01-20T10:41:10.522Z,0
2019-01-20T10:42:10.593Z,0
2019-01-20T10:43:10.555Z,0
2019-01-20T10:44:10.567Z,0
2019-01-20T10:45:10.623Z,0
2019-01-20T10:46:10.560Z,0
2019-01-20T10:47:10.545Z,0
2019-01-20T10:48:10.559Z,1.8
2019-01-20T10:49:10.473Z,3.9
2019-01-20T10:50:10.557Z,1.8
2019-01-20T10:51:10.524Z,6.6
2019-01-20T10:52:10.582Z,1.8
2019-01-20T10:53:10.555Z,1.8
2019-01-20T10:54:10.549Z,1.8
2019-01-20T10:55:10.640Z,0
2019-01-20T10:56:10.536Z,3.9
2019-01-20T10:57:10.557Z,3.9
2019-01-20T10:58:10.538Z,6.6
2019-01-20T10:59:10.542Z,3.9
2019-01-20T11:00:10.568Z,3.9
2019-01-20T11:01:10.525Z,3.9
2019-01-20T11:02:10.603Z,3.9
2019-01-20T11:03:10.545Z,1.8
2019-01-20T11:04:10.630Z,1.8
2019-01-20T11:05:10.539Z,3.9
2019-01-20T11:06:10.535Z,6.6
2019-01-20T11:07:10.541Z,6.6
2019-01-20T11:08:10.525Z,1.8
2019-01-20T11:09:10.635Z,1.8
2019-01-20T11:10:10.547Z,6.6
2019-01-20T11:11:10.586Z,6.6
2019-01-20T11:12:10.603Z,3.9
2019-01-20T11:13:10.537Z,6.6
2019-01-20T11:14:12.040Z,3.9
2019-01-20T11:15:10.563Z,12.4
2019-01-20T11:16:10.570Z,3.9
2019-01-20T11:17:10.538Z,3.9
2019-01-20T11:18:10.542Z,1.8
2019-01-20T11:19:10.646Z,0
2019-01-20T11:20:10.607Z,3.9
2019-01-20T11:21:10.564Z,1.8
2019-01-20T11:22:10.620Z,0
2019-01-20T11:23:10.489Z,0
2019-01-20T11:24:10.544Z,1.8
2019-01-20T11:25:10.531Z,1.8
2019-01-20T11:26:10.545Z,3.9
2019-01-20T11:27:10.614Z,1.8
2019-01-20T11:28:10.474Z,0
2019-01-20T11:29:10.532Z,0
2019-01-20T11:30:10.547Z,0
2019-01-20T11:31:10.604Z,0
2019-01-20T11:32:10.546Z,0
2019-01-20T11:33:10.511Z,1.8
2019-01-20T11:34:10.654Z,6.6
2019-01-20T11:35:10.545Z,1.8
2019-01-20T11:36:10.564Z,3.9
2019-01-20T11:37:10.585Z,1.8
2019-01-20T11:38:10.549Z,3.9
2019-01-20T11:39:10.560Z,1.8
2019-01-20T11:40:10.542Z,0
2019-01-20T11:41:10.544Z,0
2019-01-20T11:42:10.560Z,3.9
2019-01-20T11:43:10.540Z,0
2019-01-20T11:44:18.098Z,1.8
2019-01-20T11:45:10.587Z,1.8
2019-01-20T11:46:10.578Z,3.9
2019-01-20T11:47:10.556Z,1.8
2019-01-20T11:48:10.561Z,0
2019-01-20T11:49:10.549Z,0
2019-01-20T11:50:10.541Z,0
2019-01-20T11:51:10.529Z,0
2019-01-20T11:52:10.538Z,1.8
2019-01-20T11:53:10.557Z,6.6
2019-01-20T11:54:10.614Z,9.5
2019-01-20T11:55:10.502Z,3.9
2019-01-20T11:56:10.571Z,6.6
2019-01-20T11:57:10.599Z,9.5
2019-01-20T11:58:10.568Z,9.5
2019-01-20T11:59:10.629Z,3.9
2019-01-20T12:00:10.480Z,1.8
2019-01-20T12:01:10.495Z,6.6
2019-01-20T12:02:10.560Z,0
2019-01-20T12:03:10.635Z,0
2019-01-20T12:04:10.548Z,6.6
2019-01-20T12:05:10.541Z,0
2019-01-20T12:06:10.538Z,3.9
2019-01-20T12:07:10.551Z,3.9
2019-01-20T12:08:10.617Z,1.8
2019-01-20T12:09:10.550Z,0
2019-01-20T12:10:10.672Z,0
2019-01-20T12:11:10.508Z,6.6
2019-01-20T12:12:10.541Z,9.5
2019-01-20T12:13:10.600Z,9.5
2019-01-20T12:14:10.617Z,9.5
2019-01-20T12:15:10.503Z,9.5
2019-01-20T12:17:10.505Z,3.9
2019-01-20T12:18:10.545Z,3.9
2019-01-20T12:19:10.617Z,6.6
2019-01-20T12:20:10.529Z,3.9
2019-01-20T12:21:10.575Z,1.8
2019-01-20T12:22:10.657Z,9.5
2019-01-20T12:23:10.630Z,3.9
2019-01-20T12:24:10.657Z,3.9
2019-01-20T12:25:10.551Z,3.9
2019-01-20T12:26:10.604Z,3.9
2019-01-20T12:27:10.519Z,0
2019-01-20T12:28:10.500Z,3.9
2019-01-20T12:29:10.533Z,0
2019-01-20T12:30:10.607Z,1.8
2019-01-20T12:31:10.615Z,1.8
2019-01-20T12:32:10.541Z,3.9
2019-01-20T12:33:10.532Z,1.8
2019-01-20T12:34:10.556Z,3.9
2019-01-20T12:35:10.608Z,3.9
2019-01-20T12:36:10.526Z,3.9
2019-01-20T12:37:10.539Z,1.8
2019-01-20T12:38:10.482Z,6.6
2019-01-20T12:39:10.485Z,3.9
2019-01-20T12:40:10.677Z,6.6
2019-01-20T12:41:10.485Z,1.8
2019-01-20T12:42:10.525Z,9.5
2019-01-20T12:43:10.480Z,3.9
2019-01-20T12:44:10.506Z,6.6
2019-01-20T12:45:10.583Z,3.9
2019-01-20T12:46:10.525Z,6.6
2019-01-20T12:47:10.541Z,3.9
2019-01-20T12:48:10.511Z,3.9
2019-01-20T12:49:10.497Z,3.9
2019-01-20T12:50:10.600Z,3.9
2019-01-20T12:51:14.800Z,1.8
2019-01-20T12:52:10.588Z,3.9
2019-01-20T12:53:10.575Z,1.8
2019-01-20T12:54:10.525Z,6.6
2019-01-20T12:55:10.552Z,9.5
2019-01-20T12:56:10.522Z,6.6
2019-01-20T12:57:10.583Z,9.5
2019-01-20T12:58:10.533Z,12.4
2019-01-20T12:59:10.518Z,9.5
2019-01-20T13:00:10.636Z,9.5
2019-01-20T13:01:10.537Z,9.5
2019-01-20T13:02:10.597Z,1.8
2019-01-20T13:03:10.544Z,9.5
2019-01-20T13:04:10.542Z,6.6
2019-01-20T13:05:10.579Z,1.8
2019-01-20T13:06:10.523Z,9.5
2019-01-20T13:07:10.572Z,12.4
2019-01-20T13:08:10.506Z,3.9
2019-01-20T13:09:10.542Z,9.5
2019-01-20T13:10:10.584Z,15.4
2019-01-20T13:11:10.485Z,12.4
2019-01-20T13:12:10.604Z,12.4
2019-01-20T13:13:10.521Z,6.6
2019-01-20T13:14:10.507Z,3.9
2019-01-20T13:15:10.593Z,12.4
2019-01-20T13:16:10.578Z,6.6
2019-01-20T13:17:10.507Z,9.5
2019-01-20T13:18:10.564Z,9.5
2019-01-20T13:19:10.586Z,12.4
2019-01-20T13:20:10.572Z,15.4
2019-01-20T13:21:10.584Z,9.5
2019-01-20T13:22:10.504Z,12.4
2019-01-20T13:23:10.520Z,6.6
2019-01-20T13:24:10.557Z,15.4
2019-01-20T13:25:10.578Z,9.5
2019-01-20T13:26:10.598Z,6.6
2019-01-20T13:27:11.336Z,12.4
2019-01-20T13:28:10.595Z,9.5
2019-01-20T13:29:10.547Z,12.4
2019-01-20T13:30:10.583Z,21.3
2019-01-20T13:31:10.623Z,12.4
2019-01-20T13:32:10.535Z,15.4
2019-01-20T13:33:10.455Z,6.6
2019-01-20T13:34:10.529Z,12.4
2019-01-20T13:35:10.523Z,9.5
2019-01-20T13:36:10.563Z,15.4
2019-01-20T13:37:10.542Z,9.5
2019-01-20T13:38:10.469Z,15.4
2019-01-20T13:39:10.577Z,12.4
2019-01-20T13:40:10.544Z,24.3
2019-01-20T13:41:10.533Z,6.6
2019-01-20T13:42:10.545Z,9.5
2019-01-20T13:43:10.603Z,18.3
2019-01-20T13:44:10.488Z,21.3
2019-01-20T13:45:10.535Z,18.3
2019-01-20T13:46:10.573Z,15.4
2019-01-20T13:47:10.561Z,21.3
2019-01-20T13:48:11.448Z,3.9
2019-01-20T13:49:10.484Z,9.5
2019-01-20T13:50:10.579Z,30.3
2019-01-20T13:51:10.513Z,15.4
2019-01-20T13:52:10.537Z,12.4
2019-01-20T13:53:10.550Z,12.4
2019-01-20T13:54:10.595Z,21.3
2019-01-20T13:55:10.460Z,15.4
2019-01-20T13:56:10.628Z,12.4
2019-01-20T13:57:10.525Z,21.3
2019-01-20T13:58:10.509Z,15.4
2019-01-20T13:59:10.532Z,18.3
2019-01-20T14:00:10.487Z,24.3
2019-01-20T14:01:10.556Z,21.3
2019-01-20T14:02:10.520Z,21.3
2019-01-20T14:03:10.538Z,21.3
2019-01-20T14:04:10.709Z,27.3
2019-01-20T14:05:10.534Z,21.3
2019-01-20T14:06:10.481Z,18.3
2019-01-20T14:07:10.523Z,18.3
2019-01-20T14:08:10.539Z,27.3
2019-01-20T14:09:10.563Z,18.3
2019-01-20T14:10:10.512Z,33.3
2019-01-20T14:11:10.482Z,15.4
2019-01-20T14:12:10.545Z,12.4
2019-01-20T14:13:10.584Z,12.4
2019-01-20T14:14:10.532Z,21.3
2019-01-20T14:15:10.542Z,24.3
2019-01-20T14:16:10.578Z,12.4